Time;durP1;ratioP1;P1;durP2;ratioP2;P2;SDS_P1;SDS_P2;PMS_P1;PMS_P2;Temp;Humidity;BMP_temperature;BMP_pressure;BME280_temperature;BME280_humidity;BME280_pressure;Samples;Min_cycle;Max_cycle;Signal;HPM_P1;HPM_P2
2022/02/12 08:28:55;;;;;;;1.52;0.85;;;;;;;19.12;42.92;100634.19;5361416;23;20113;-71
2022/02/12 08:31:20;;;;;;;2.25;0.70;;;;;;;19.19;42.97;100658.41;4975325;28;20114;-72
2022/02/12 08:33:46;;;;;;;4.95;1.38;;;;;;;19.08;43.27;100652.72;4975592;28;20022;-70
2022/02/12 08:36:12;;;;;;;2.53;0.88;;;;;;;19.20;43.03;100655.28;4975503;28;20485;-70
2022/02/12 08:38:37;;;;;;;0.98;0.40;;;;;;;19.24;43.10;100647.00;4975713;28;20477;-71
2022/02/12 08:41:03;;;;;;;4.93;1.00;;;;;;;19.28;42.99;100645.91;4975840;28;20050;-70
2022/02/12 08:43:28;;;;;;;1.05;0.63;;;;;;;19.41;43.07;100647.25;4958294;28;20038;-70
2022/02/12 08:45:54;;;;;;;1.67;0.68;;;;;;;19.35;43.00;100651.53;4975636;28;20105;-69
2022/02/12 08:48:20;;;;;;;7.63;1.48;;;;;;;19.11;43.75;100644.44;4975594;28;20396;-70
2022/02/12 08:50:45;;;;;;;5.22;0.93;;;;;;;19.22;43.63;100652.13;4975575;28;20505;-68
2022/02/12 08:53:11;;;;;;;4.07;0.65;;;;;;;19.37;43.43;100640.06;4975393;28;20054;-70
2022/02/12 08:55:37;;;;;;;2.25;0.68;;;;;;;19.21;43.95;100654.09;4975518;28;20106;-80
2022/02/12 08:58:02;;;;;;;4.88;1.33;;;;;;;19.22;43.66;100663.22;4975208;28;20038;-69
2022/02/12 09:00:28;;;;;;;3.67;0.88;;;;;;;19.34;43.71;100669.31;4975410;28;20034;-70
2022/02/12 09:02:53;;;;;;;7.43;1.35;;;;;;;19.33;44.07;100673.25;4974139;28;20023;-69
2022/02/12 09:05:20;;;;;;;1.73;0.65;;;;;;;19.17;44.39;100669.06;4973590;28;20501;-69
2022/02/12 09:07:45;;;;;;;9.02;1.50;;;;;;;19.26;44.35;100650.19;4972075;28;20134;-69
2022/02/12 09:10:11;;;;;;;7.78;1.70;;;;;;;19.37;44.04;100651.16;4973898;28;20110;-70
2022/02/12 09:12:37;;;;;;;2.10;0.93;;;;;;;19.45;43.86;100647.31;4973252;28;20532;-69
2022/02/12 09:15:03;;;;;;;2.00;0.77;;;;;;;19.35;44.16;100634.13;4973521;28;20074;-69
2022/02/12 09:17:28;;;;;;;4.63;0.75;;;;;;;19.24;44.08;100627.63;4974083;28;20035;-69
2022/02/12 09:19:58;;;;;;;4.15;0.70;;;;;;;19.27;44.58;100624.91;4974274;28;20034;-70
2022/02/12 09:22:24;;;;;;;;;;;;;;;19.17;44.86;100620.00;4975062;28;20034;-77
2022/02/12 09:24:49;;;;;;;0.80;0.55;;;;;;;19.10;45.09;100623.47;4974737;28;20438;-84
2022/02/12 09:27:16;;;;;;;1.35;0.30;;;;;;;19.23;44.62;100620.47;4974971;28;20073;-82
2022/02/12 09:29:42;;;;;;;1.10;0.65;;;;;;;19.17;44.89;100633.84;4974710;28;20050;-76
2022/02/12 09:32:08;;;;;;;5.47;1.50;;;;;;;19.07;45.21;100624.22;4971012;28;20070;-71
2022/02/12 09:34:34;;;;;;;4.38;0.70;;;;;;;19.20;44.88;100619.28;4970891;28;20039;-70
2022/02/12 09:37:00;;;;;;;1.80;0.50;;;;;;;19.28;44.71;100609.88;4974476;28;20113;-83
2022/02/12 09:39:25;;;;;;;3.83;0.70;;;;;;;19.07;45.46;100607.59;4974628;28;20089;-83
2022/02/12 09:41:53;;;;;;;2.13;0.73;;;;;;;19.40;44.70;100604.09;4974793;28;20082;-72
2022/02/12 09:44:19;;;;;;;3.28;0.90;;;;;;;19.52;44.46;100616.13;4974572;28;20030;-70
2022/02/12 09:47:24;;;;;;;4.07;0.70;;;;;;;19.48;44.84;100604.97;4974566;28;20101;-83
2022/02/12 09:49:52;;;;;;;4.85;0.77;;;;;;;19.58;44.52;100603.56;4974527;28;20089;-85
2022/02/12 09:52:18;;;;;;;2.88;0.70;;;;;;;19.64;44.41;100608.38;4961773;28;20018;-70
2022/02/12 09:54:45;;;;;;;3.95;1.15;;;;;;;19.65;44.39;100611.97;4958610;28;20545;-71
2022/02/12 09:57:11;;;;;;;3.35;1.20;;;;;;;19.55;44.62;100598.75;4957161;28;20062;-70
2022/02/12 09:59:36;;;;;;;5.78;1.10;;;;;;;19.61;44.41;100597.25;4957892;28;20126;-76
2022/02/12 10:02:02;;;;;;;12.35;2.35;;;;;;;19.67;44.48;100601.31;4957090;28;20259;-70
2022/02/12 10:04:29;;;;;;;3.30;0.77;;;;;;;19.84;43.99;100586.03;4957922;28;20117;-70
2022/02/12 10:06:54;;;;;;;5.20;1.02;;;;;;;19.83;44.14;100587.22;4957179;28;20030;-71
2022/02/12 10:09:20;;;;;;;6.88;1.65;;;;;;;19.61;44.74;100580.63;4956736;28;20035;-70
2022/02/12 10:11:50;;;;;;;3.42;1.27;;;;;;;19.66;44.94;100586.66;4956413;28;20041;-70
2022/02/12 10:14:19;;;;;;;1.73;0.77;;;;;;;19.96;44.28;100583.00;4971376;28;20026;-71
2022/02/12 10:16:55;;;;;;;4.82;0.93;;;;;;;19.91;44.64;100588.91;4973797;28;20536;-72
2022/02/12 10:19:32;;;;;;;4.53;1.08;;;;;;;20.07;44.37;100583.13;4973239;28;20041;-81
2022/02/12 10:22:09;;;;;;;4.95;1.30;;;;;;;20.14;44.55;100583.19;4971809;28;20385;-85
2022/02/12 10:24:50;;;;;;;3.05;1.13;;;;;;;20.26;44.33;100577.38;4974115;28;20031;-83
2022/02/12 10:27:17;;;;;;;6.15;1.35;;;;;;;20.50;43.91;100567.69;4973797;28;20496;-70
2022/02/12 10:29:47;;;;;;;3.90;1.73;;;;;;;20.47;44.25;100554.56;4972154;28;20043;-79
2022/02/12 10:32:14;;;;;;;3.35;1.05;;;;;;;20.48;44.18;100559.75;4973401;28;20030;-80
2022/02/12 10:34:43;;;;;;;6.13;1.60;;;;;;;20.70;43.72;100566.22;4966005;28;20050;-71
2022/02/12 10:37:14;;;;;;;2.70;0.80;;;;;;;20.62;44.04;100566.56;4957592;28;20023;-72
2022/02/12 10:39:55;;;;;;;7.55;1.45;;;;;;;20.40;44.59;100568.34;4957408;28;20729;-71
2022/02/12 10:42:22;;;;;;;8.45;1.40;;;;;;;20.56;44.24;100565.34;4958025;28;20026;-71
2022/02/12 10:44:48;;;;;;;3.85;1.52;;;;;;;20.78;43.63;100567.06;4957429;28;20042;-71
2022/02/12 10:47:14;;;;;;;6.53;1.30;;;;;;;20.75;43.88;100576.97;4956305;28;20023;-72
2022/02/12 10:49:41;;;;;;;9.88;1.38;;;;;;;20.63;43.95;100568.16;4955890;28;20058;-72
2022/02/12 10:52:07;;;;;;;3.22;0.90;;;;;;;20.72;43.60;100576.97;4956743;28;20555;-72
2022/02/12 10:54:59;;;;;;;6.50;1.90;;;;;;;20.75;43.46;100576.97;4939938;28;20035;-72
2022/02/12 10:57:29;;;;;;;4.05;1.48;;;;;;;20.83;43.44;100571.47;4954048;28;20042;-72
2022/02/12 10:59:56;;;;;;;2.33;0.80;;;;;;;20.70;43.85;100571.00;4957178;28;20672;-76
2022/02/12 11:02:25;;;;;;;5.00;1.15;;;;;;;20.82;43.21;100575.44;4956763;28;20035;-74
2022/02/12 11:04:53;;;;;;;8.10;2.53;;;;;;;20.54;43.91;100576.81;4956495;28;20034;-72
2022/02/12 11:07:19;;;;;;;5.13;1.23;;;;;;;20.92;43.09;100594.94;4957367;28;20035;-72
2022/02/12 11:09:46;;;;;;;6.47;1.55;;;;;;;20.95;43.19;100588.63;4955950;28;20456;-72
2022/02/12 11:12:13;;;;;;;5.05;1.05;;;;;;;21.04;42.82;100577.97;4955026;28;20042;-75
2022/02/12 11:14:39;;;;;;;2.47;1.17;;;;;;;21.17;42.55;100580.44;4957143;28;20031;-72
2022/02/12 11:17:23;;;;;;;3.33;1.08;;;;;;;20.81;43.30;100569.09;4939341;28;20037;-72
2022/02/12 11:19:52;;;;;;;9.18;1.80;;;;;;;20.85;43.28;100569.91;4955241;28;20049;-72
2022/02/12 11:22:18;;;;;;;6.88;1.88;;;;;;;20.97;43.28;100571.56;4959362;28;20023;-72
2022/02/12 11:24:46;;;;;;;5.18;1.13;;;;;;;21.21;42.89;100572.91;4958185;28;20034;-72
2022/02/12 11:27:29;;;;;;;3.20;1.00;;;;;;;21.23;42.68;100574.09;4958869;28;20428;-72
2022/02/12 11:30:14;;;;;;;5.55;1.58;;;;;;;21.34;42.47;100560.28;4958712;28;20038;-72
2022/02/12 11:32:45;;;;;;;4.82;1.77;;;;;;;21.17;42.46;100566.53;4972711;28;20039;-71
2022/02/12 11:35:10;;;;;;;4.03;1.85;;;;;;;21.18;42.34;100549.47;4943740;28;20066;-72
2022/02/12 11:37:46;;;;;;;11.32;1.95;;;;;;;21.19;42.19;100564.16;4941431;28;20042;-72
2022/02/12 11:40:30;;;;;;;3.28;1.50;;;;;;;21.44;41.73;100556.75;4958858;28;20031;-72
2022/02/12 11:42:58;;;;;;;4.72;1.60;;;;;;;21.31;41.88;100553.53;4959437;28;20078;-72
2022/02/12 11:45:42;;;;;;;6.05;1.88;;;;;;;21.34;41.71;100557.53;4959515;28;20031;-72
2022/02/12 11:48:28;;;;;;;7.53;1.98;;;;;;;21.46;41.36;100548.03;4961367;28;20055;-72
2022/02/12 11:51:08;;;;;;;3.13;1.10;;;;;;;21.47;41.27;100550.44;4961709;28;20421;-72
2022/02/12 11:53:54;;;;;;;4.85;1.50;;;;;;;21.24;41.62;100547.94;4960925;28;20027;-72
2022/02/12 11:56:19;;;;;;;7.25;1.63;;;;;;;21.49;41.37;100530.56;4943928;28;20616;-71
2022/02/12 11:58:45;;;;;;;3.10;1.17;;;;;;;21.23;41.64;100523.28;4959280;28;20094;-72
2022/02/12 12:01:23;;;;;;;2.53;1.20;;;;;;;21.50;40.81;100516.28;4943243;28;20054;-72
2022/02/12 12:04:10;;;;;;;3.72;1.25;;;;;;;21.35;40.98;100500.75;4960012;28;20037;-72
2022/02/12 12:06:38;;;;;;;5.32;1.73;;;;;;;21.13;41.53;100504.59;4960515;28;20061;-72
2022/02/12 12:09:14;;;;;;;6.05;1.77;;;;;;;21.32;40.74;100519.00;4959482;28;20558;-72
2022/02/12 12:11:41;;;;;;;5.43;1.90;;;;;;;21.42;40.49;100514.66;4959835;28;20794;-71
2022/02/12 12:14:22;;;;;;;8.07;1.98;;;;;;;21.55;40.29;100493.66;4960338;28;20483;-72
2022/02/12 12:16:59;;;;;;;7.55;2.85;;;;;;;21.41;40.38;100499.19;4958284;28;20034;-72
2022/02/12 12:19:25;;;;;;;5.50;1.63;;;;;;;21.40;40.38;100494.81;4959783;28;20060;-72
2022/02/12 12:21:51;;;;;;;6.50;2.13;;;;;;;21.54;39.83;100497.63;4959928;28;20029;-71
2022/02/12 12:24:20;;;;;;;4.55;1.65;;;;;;;21.47;40.06;100492.06;4959348;28;20022;-72
2022/02/12 12:26:48;;;;;;;2.97;1.50;;;;;;;21.47;40.00;100494.84;4959047;28;20058;-72
2022/02/12 12:32:04;;;;;;;7.53;1.83;;;;;;;21.31;39.97;100492.41;4958137;28;20041;-72
2022/02/12 12:34:31;;;;;;;7.88;2.13;;;;;;;21.48;39.37;100482.53;4959193;28;20039;-72
2022/02/12 12:36:57;;;;;;;5.78;1.63;;;;;;;21.46;39.46;100475.75;4958590;28;20050;-72
2022/02/12 12:39:31;;;;;;;8.68;1.90;;;;;;;21.50;39.29;100479.34;4958705;28;20018;-72
2022/02/12 12:41:57;;;;;;;7.55;1.65;;;;;;;21.52;39.32;100480.53;4959790;28;20119;-72
2022/02/12 12:44:23;;;;;;;6.60;2.00;;;;;;;21.75;38.90;100457.94;4958965;28;20030;-72
2022/02/12 12:46:56;;;;;;;5.95;1.33;;;;;;;21.41;39.34;100471.38;4958291;28;20015;-72
2022/02/12 12:49:29;;;;;;;4.90;1.20;;;;;;;21.48;38.94;100485.31;4959293;28;20485;-72
2022/02/12 12:51:55;;;;;;;3.75;1.33;;;;;;;21.40;39.41;100474.56;4960278;28;20386;-72
2022/02/12 12:54:29;;;;;;;5.40;1.90;;;;;;;21.56;38.70;100470.22;4959738;28;20098;-72
2022/02/12 12:56:56;;;;;;;5.57;1.35;;;;;;;21.38;39.18;100469.38;4958771;28;20560;-72
2022/02/12 12:59:21;;;;;;;5.78;1.50;;;;;;;21.29;39.19;100474.50;4958889;28;20049;-72
2022/02/12 13:01:59;;;;;;;10.30;1.58;;;;;;;20.91;39.80;100462.84;4942163;28;20616;-72
2022/02/12 13:04:25;;;;;;;9.05;1.90;;;;;;;21.33;38.94;100467.00;4958293;28;20077;-71
2022/02/12 13:06:54;;;;;;;9.05;2.25;;;;;;;21.55;38.62;100479.75;4959007;28;20038;-72
2022/02/12 13:09:21;;;;;;;7.88;1.95;;;;;;;21.27;39.30;100474.91;4958057;28;20401;-71
2022/02/12 13:11:47;;;;;;;3.40;1.38;;;;;;;21.08;39.83;100477.97;4958146;28;20089;-71
2022/02/12 13:14:12;;;;;;;5.05;1.92;;;;;;;21.32;39.60;100487.66;4940953;28;20792;-71
2022/02/12 13:16:41;;;;;;;7.97;1.67;;;;;;;20.90;40.53;100477.91;4957178;28;20118;-71
2022/02/12 13:19:17;;;;;;;7.07;1.73;;;;;;;21.33;40.28;100469.78;4962971;28;20033;-71
2022/02/12 13:22:01;;;;;;;6.47;1.90;;;;;;;21.14;40.71;100475.63;4974949;28;20058;-70
2022/02/12 13:24:34;;;;;;;5.82;2.20;;;;;;;21.18;40.77;100454.22;4974888;28;20069;-70
2022/02/12 13:26:59;;;;;;;9.80;2.15;;;;;;;21.31;40.72;100466.56;4974782;28;20027;-70
2022/02/12 13:29:26;;;;;;;10.32;2.22;;;;;;;21.30;40.67;100446.34;4974607;28;20131;-70
2022/02/12 13:31:59;;;;;;;11.02;3.10;;;;;;;21.05;41.03;100451.78;4974709;28;20110;-70
2022/02/12 13:34:29;;;;;;;5.03;1.52;;;;;;;20.73;41.57;100454.41;4974730;28;20395;-70
2022/02/12 13:36:58;;;;;;;12.25;2.72;;;;;;;20.94;41.27;100450.97;4957324;28;20448;-72
2022/02/12 13:39:27;;;;;;;5.00;1.67;;;;;;;20.80;41.18;100450.88;4974836;28;20054;-71
2022/02/12 13:41:58;;;;;;;13.45;1.70;;;;;;;20.57;41.17;100451.16;4973727;28;20030;-72
2022/02/12 13:44:34;;;;;;;5.80;1.27;;;;;;;20.67;41.10;100435.75;4940237;28;20027;-72
2022/02/12 13:47:07;;;;;;;8.32;2.05;;;;;;;20.74;41.12;100439.34;4959173;28;20031;-72
2022/02/12 13:49:38;;;;;;;8.32;1.95;;;;;;;20.78;41.42;100428.25;4958182;28;20030;-76
2022/02/12 13:52:05;;;;;;;4.60;1.05;;;;;;;20.38;41.66;100427.22;4958379;28;20104;-74
2022/02/12 13:54:32;;;;;;;6.45;1.33;;;;;;;20.63;40.99;100426.59;4957546;28;20548;-72
2022/02/12 13:57:00;;;;;;;4.20;1.35;;;;;;;20.50;40.98;100426.94;4957535;28;20070;-72
2022/02/12 13:59:26;;;;;;;4.80;1.52;;;;;;;20.43;41.10;100440.75;4957810;28;20029;-73
2022/02/12 14:01:55;;;;;;;2.50;0.95;;;;;;;20.56;40.62;100432.94;4958205;28;20030;-72
2022/02/12 14:04:22;;;;;;;3.38;1.20;;;;;;;20.56;40.81;100423.81;4958105;28;20023;-72
2022/02/12 14:06:48;;;;;;;6.15;1.65;;;;;;;20.57;40.47;100408.75;4957779;28;20097;-72
2022/02/12 14:09:17;;;;;;;4.88;1.10;;;;;;;20.43;40.99;100420.53;4958049;28;20026;-76
2022/02/12 14:11:49;;;;;;;63.10;57.05;;;;;;;20.58;40.76;100416.66;4957945;28;20030;-71
2022/02/12 14:14:15;;;;;;;9.02;3.13;;;;;;;20.54;41.16;100403.94;4957321;28;20026;-72
2022/02/12 14:16:42;;;;;;;10.30;2.88;;;;;;;20.50;41.49;100404.75;4958821;28;20392;-72
2022/02/12 14:19:09;;;;;;;4.57;1.15;;;;;;;20.66;41.25;100411.94;4957820;28;20097;-72
2022/02/12 14:21:36;;;;;;;4.40;1.30;;;;;;;20.81;40.90;100408.06;4957638;28;20019;-72
2022/02/12 14:24:03;;;;;;;4.75;1.20;;;;;;;20.50;41.10;100404.75;4958276;28;20489;-71
2022/02/12 14:26:30;;;;;;;6.53;1.38;;;;;;;20.71;40.59;100398.50;4956296;28;20058;-72
2022/02/12 14:28:57;;;;;;;7.45;1.45;;;;;;;20.62;40.39;100394.47;4955272;28;20049;-72
2022/02/12 14:31:23;;;;;;;7.55;1.83;;;;;;;20.73;39.95;100387.00;4957697;28;20043;-72
2022/02/12 14:33:49;;;;;;;6.32;1.75;;;;;;;20.65;39.42;100391.72;4958105;28;20074;-72
2022/02/12 14:36:14;;;;;;;6.65;1.52;;;;;;;20.79;39.13;100388.22;4957884;28;20503;-72
2022/02/12 14:38:41;;;;;;;4.43;1.40;;;;;;;20.53;38.88;100375.41;4957417;28;20163;-72
2022/02/12 14:41:13;;;;;;;5.25;1.75;;;;;;;20.32;39.35;100367.72;4957250;28;20114;-72
2022/02/12 14:43:39;;;;;;;4.53;1.23;;;;;;;20.77;38.51;100351.69;4957740;28;20023;-72
2022/02/12 14:46:06;;;;;;;6.13;1.35;;;;;;;20.47;38.90;100371.41;4957029;28;20027;-72
2022/02/12 14:48:32;;;;;;;10.27;2.20;;;;;;;20.39;39.02;100367.75;4957332;28;20078;-72
2022/02/12 14:50:58;;;;;;;5.40;1.52;;;;;;;20.34;38.99;100368.16;4957153;28;20043;-72
2022/02/12 14:53:25;;;;;;;4.88;1.60;;;;;;;20.59;38.22;100370.28;4957086;28;21187;-72
2022/02/12 14:55:50;;;;;;;2.97;1.35;;;;;;;20.58;38.43;100369.50;4958823;28;20026;-72
2022/02/12 14:58:16;;;;;;;5.25;1.55;;;;;;;20.52;38.45;100370.25;4962232;28;20081;-72
2022/02/12 15:00:42;;;;;;;6.65;2.17;;;;;;;20.68;38.19;100377.06;4959506;28;20050;-72
2022/02/12 15:03:07;;;;;;;6.25;2.50;;;;;;;20.72;38.29;100377.09;4957893;28;20019;-72
2022/02/12 15:05:33;;;;;;;3.70;1.48;;;;;;;20.40;39.01;100377.69;4959538;28;20019;-72
2022/02/12 15:07:58;;;;;;;10.45;2.17;;;;;;;20.49;39.12;100369.84;4958938;28;20038;-72
2022/02/12 15:10:24;;;;;;;5.80;1.83;;;;;;;20.41;39.53;100368.19;4941181;28;20104;-72
2022/02/12 15:12:50;;;;;;;10.23;1.80;;;;;;;20.57;39.17;100365.13;4958742;28;20670;-72
2022/02/12 15:15:15;;;;;;;6.95;1.55;;;;;;;20.43;39.43;100359.47;4959345;28;20035;-72
2022/02/12 15:17:41;;;;;;;4.15;1.85;;;;;;;20.50;39.33;100362.31;4964772;28;20601;-72
2022/02/12 15:20:09;;;;;;;9.82;2.38;;;;;;;20.43;39.55;100365.03;4977367;28;20023;-72
2022/02/12 15:22:36;;;;;;;6.03;1.95;;;;;;;20.33;39.83;100366.56;4977133;28;20034;-72
2022/02/12 15:25:03;;;;;;;6.68;2.90;;;;;;;20.42;39.72;100361.47;4977045;28;20057;-71
2022/02/12 15:27:29;;;;;;;7.65;2.25;;;;;;;20.48;39.52;100361.91;4976711;28;20027;-79
2022/02/12 15:29:54;;;;;;;5.85;1.85;;;;;;;20.48;39.60;100368.25;4976942;28;20042;-72
2022/02/12 15:32:20;;;;;;;4.40;1.48;;;;;;;20.30;39.85;100370.09;4976775;28;20401;-71
2022/02/12 15:34:47;;;;;;;9.88;2.25;;;;;;;20.54;39.46;100362.31;4976663;28;20113;-78
2022/02/12 15:37:14;;;;;;;7.47;2.00;;;;;;;20.54;39.39;100360.34;4949755;28;20525;-72
2022/02/12 15:39:41;;;;;;;4.50;1.60;;;;;;;20.73;39.09;100362.00;4958576;28;20045;-72
2022/02/12 15:42:07;;;;;;;11.45;2.55;;;;;;;20.72;38.71;100341.00;4958714;28;20078;-71
2022/02/12 15:44:33;;;;;;;9.57;2.65;;;;;;;20.60;39.03;100349.66;4968957;28;20078;-72
2022/02/12 15:46:58;;;;;;;5.78;1.58;;;;;;;20.45;39.08;100346.03;4975353;28;20497;-71
2022/02/12 15:49:25;;;;;;;8.40;2.22;;;;;;;20.35;38.74;100350.31;4974565;28;20023;-71
2022/02/12 15:51:53;;;;;;;6.43;2.10;;;;;;;20.40;38.65;100352.72;4974551;28;20097;-71
2022/02/12 15:54:18;;;;;;;8.27;2.28;;;;;;;20.28;38.64;100352.25;4974316;28;20038;-71
2022/02/12 15:56:44;;;;;;;8.32;1.80;;;;;;;20.34;38.26;100345.16;4968941;28;20497;-72
2022/02/12 15:59:09;;;;;;;6.00;1.52;;;;;;;20.26;38.28;100349.09;4958045;28;20037;-72
2022/02/12 16:01:38;;;;;;;5.20;1.83;;;;;;;20.19;38.25;100355.38;4957628;28;20034;-72
2022/02/12 16:04:04;;;;;;;8.38;2.25;;;;;;;20.00;38.40;100348.13;4958648;28;20031;-71
2022/02/12 16:06:30;;;;;;;8.65;1.98;;;;;;;20.04;38.26;100348.94;4972826;28;20038;-71
2022/02/12 16:08:56;;;;;;;6.18;2.22;;;;;;;20.09;37.88;100345.00;4976027;28;20023;-70
2022/02/12 16:11:21;;;;;;;5.50;1.50;;;;;;;20.13;37.83;100345.84;4975974;28;20034;-71
2022/02/12 16:13:47;;;;;;;10.88;2.10;;;;;;;20.11;37.95;100348.19;4975859;28;20034;-71
2022/02/12 16:16:12;;;;;;;8.40;2.38;;;;;;;19.73;38.39;100344.78;4975714;28;20042;-71
2022/02/12 16:18:39;;;;;;;8.77;1.98;;;;;;;19.98;38.02;100352.47;4975828;28;20038;-71
2022/02/12 16:21:05;;;;;;;6.38;2.25;;;;;;;19.75;38.34;100342.41;4956957;28;20418;-71
2022/02/12 16:23:31;;;;;;;14.48;2.35;;;;;;;19.74;37.94;100351.91;4941474;28;20029;-72
2022/02/12 16:25:57;;;;;;;7.35;2.47;;;;;;;19.48;38.23;100346.50;4958099;28;20034;-71
2022/02/12 16:28:22;;;;;;;6.78;2.15;;;;;;;19.51;38.03;100352.09;4958957;28;20043;-71
2022/02/12 16:30:50;;;;;;;6.45;2.00;;;;;;;19.71;37.82;100344.34;4967565;28;20109;-71
2022/02/12 16:33:17;;;;;;;11.70;2.42;;;;;;;19.66;37.96;100344.72;4975490;28;20022;-72
2022/02/12 16:35:47;;;;;;;7.35;2.20;;;;;;;19.62;38.00;100346.66;4975393;28;20022;-71
2022/02/12 16:38:14;;;;;;;7.07;2.08;;;;;;;19.32;38.51;100342.00;4975425;28;20135;-71
2022/02/12 16:40:40;;;;;;;9.40;2.67;;;;;;;19.25;38.57;100339.16;4975196;28;20027;-71
2022/02/12 16:43:06;;;;;;;6.97;2.40;;;;;;;19.40;38.27;100346.44;4975467;28;20030;-72
2022/02/12 16:45:32;;;;;;;5.72;2.20;;;;;;;19.50;38.09;100352.47;4957892;28;20366;-80
2022/02/12 16:47:59;;;;;;;10.80;2.65;;;;;;;19.39;38.13;100347.63;4975563;28;20034;-71
2022/02/12 16:50:25;;;;;;;9.48;2.63;;;;;;;19.24;38.33;100348.66;4972650;28;20026;-71
2022/02/12 16:52:51;;;;;;;7.22;2.35;;;;;;;19.20;38.18;100345.06;4975350;28;20023;-71
2022/02/12 16:55:17;;;;;;;10.35;2.78;;;;;;;19.16;38.22;100343.44;4975094;28;20484;-79
2022/02/12 16:57:42;;;;;;;14.43;2.30;;;;;;;19.23;38.24;100352.63;4974843;28;20054;-71
2022/02/12 17:00:10;;;;;;;8.48;2.83;;;;;;;19.11;38.28;100352.88;4974848;28;20042;-72
2022/02/12 17:02:39;;;;;;;12.52;3.25;;;;;;;19.13;38.20;100353.31;4975152;28;20081;-78
2022/02/12 17:05:12;;;;;;;11.82;3.10;;;;;;;19.17;38.01;100351.34;4957941;28;20023;-72
2022/02/12 17:07:38;;;;;;;12.35;3.13;;;;;;;19.13;38.00;100354.09;4959263;28;20023;-71
2022/02/12 17:10:05;;;;;;;9.57;3.15;;;;;;;19.14;38.00;100363.22;4957416;28;20015;-72
2022/02/12 17:12:31;;;;;;;15.82;3.42;;;;;;;19.22;37.67;100356.56;4972579;28;20389;-77
2022/02/12 17:15:00;;;;;;;15.30;8.13;;;;;;;19.17;38.13;100356.91;4973437;28;20030;-73
2022/02/12 17:17:25;;;;;;;16.70;6.18;;;;;;;19.07;38.23;100350.09;4977282;28;20515;-73
2022/02/12 17:19:51;;;;;;;30.73;15.68;;;;;;;19.05;38.46;100362.72;4965816;28;20114;-80
2022/02/12 17:22:16;;;;;;;111.57;57.78;;;;;;;19.04;38.57;100364.69;4956614;28;20031;-73
2022/02/12 17:24:42;;;;;;;100.55;52.95;;;;;;;19.03;38.46;100353.97;4938707;28;20396;-73
2022/02/12 17:27:08;;;;;;;135.65;75.18;;;;;;;18.99;39.13;100347.63;4955647;28;20055;-73
2022/02/12 17:29:33;;;;;;;27.23;14.82;;;;;;;18.84;39.33;100353.00;4936650;28;20042;-72
2022/02/12 17:31:59;;;;;;;21.88;11.18;;;;;;;18.89;39.43;100343.53;4953784;28;20069;-81
2022/02/12 17:34:24;;;;;;;70.93;40.58;;;;;;;18.97;39.18;100342.47;4938668;28;20093;-81
2022/02/12 17:36:50;;;;;;;139.65;82.47;;;;;;;19.04;39.31;100348.09;4955551;28;20058;-79
2022/02/12 17:39:16;;;;;;;180.23;108.25;;;;;;;19.07;39.21;100352.84;4937690;28;20082;-81
2022/02/12 17:41:41;;;;;;;280.23;170.48;;;;;;;19.05;39.19;100357.19;4955094;28;20030;-73
2022/02/12 17:44:10;;;;;;;14.68;6.65;;;;;;;18.96;39.29;100353.91;4952863;28;20501;-78
2022/02/12 17:46:37;;;;;;;36.10;26.80;;;;;;;19.02;39.00;100360.69;4953772;28;20019;-76
2022/02/12 17:49:02;;;;;;;40.20;36.65;;;;;;;18.99;39.14;100364.25;4954277;28;20093;-75
2022/02/12 17:51:28;;;;;;;22.92;19.77;;;;;;;18.94;39.29;100367.34;4954893;28;20026;-74
2022/02/12 17:53:53;;;;;;;11.60;6.85;;;;;;;18.85;39.45;100368.44;4956436;28;20063;-75
2022/02/12 17:56:19;;;;;;;18.95;11.48;;;;;;;18.91;39.08;100374.44;4956293;28;20026;-75
2022/02/12 17:58:45;;;;;;;14.25;8.55;;;;;;;18.83;39.19;100370.78;4957938;28;20026;-74
2022/02/12 18:01:12;;;;;;;10.75;7.28;;;;;;;18.87;39.33;100370.81;4956922;28;20055;-75
2022/02/12 18:03:37;;;;;;;9.20;3.38;;;;;;;18.63;39.79;100372.09;4956584;28;20119;-75
2022/02/12 18:06:03;;;;;;;13.75;4.97;;;;;;;18.55;39.85;100373.97;4956295;28;20122;-75
2022/02/12 18:08:28;;;;;;;10.88;2.65;;;;;;;18.60;39.68;100364.53;4956791;28;20026;-84
2022/02/12 18:10:54;;;;;;;11.23;3.67;;;;;;;18.54;39.63;100375.13;4940057;28;20043;-80
2022/02/12 18:13:20;;;;;;;10.55;4.40;;;;;;;18.51;39.75;100364.00;4954974;28;20030;-88
2022/02/12 18:15:45;;;;;;;9.35;4.35;;;;;;;18.45;39.59;100360.00;4938506;28;20035;-78
2022/02/12 18:18:11;;;;;;;10.10;7.28;;;;;;;18.48;39.54;100362.00;4938772;28;20042;-75
2022/02/12 18:20:37;;;;;;;12.93;5.10;;;;;;;18.44;39.53;100363.91;4955642;28;20043;-74
2022/02/12 18:23:02;;;;;;;13.93;4.65;;;;;;;18.35;39.50;100364.19;4955800;28;20409;-72
2022/02/12 18:25:31;;;;;;;12.65;4.70;;;;;;;18.28;39.61;100367.66;4956609;28;20041;-76
2022/02/12 18:27:56;;;;;;;12.00;3.90;;;;;;;18.23;39.81;100367.22;4955779;28;20738;-75
2022/02/12 18:30:22;;;;;;;16.75;4.03;;;;;;;18.27;39.74;100373.56;4955231;28;20046;-73
2022/02/12 18:32:48;;;;;;;14.32;3.58;;;;;;;18.22;39.77;100374.72;4938682;28;20110;-73
2022/02/12 18:35:13;;;;;;;17.60;4.75;;;;;;;18.18;39.91;100373.84;4956366;28;20042;-74
2022/02/12 18:37:39;;;;;;;17.83;4.30;;;;;;;18.05;40.12;100369.69;4956594;28;20034;-77
2022/02/12 18:40:06;;;;;;;15.90;4.65;;;;;;;18.11;40.22;100378.47;4957254;28;20042;-72
2022/02/12 18:42:34;;;;;;;13.45;3.38;;;;;;;18.13;40.19;100376.94;4972447;28;20054;-78
2022/02/12 18:45:01;;;;;;;20.67;5.47;;;;;;;18.22;40.05;100377.47;4972848;28;20031;-74
2022/02/12 18:47:26;;;;;;;14.02;3.70;;;;;;;18.11;40.25;100382.03;4973195;28;20027;-75
2022/02/12 18:49:52;;;;;;;19.15;4.25;;;;;;;18.26;39.74;100378.31;4972903;28;20057;-72
2022/02/12 18:52:18;;;;;;;20.90;5.53;;;;;;;18.22;40.07;100385.78;4972439;28;20425;-72
2022/02/12 18:54:44;;;;;;;16.33;4.38;;;;;;;18.15;40.24;100387.63;4972131;28;20027;-72
2022/02/12 18:57:13;;;;;;;10.55;3.42;;;;;;;18.21;40.12;100389.72;4972002;28;20029;-71
2022/02/12 18:59:40;;;;;;;14.45;4.65;;;;;;;18.33;39.89;100398.94;4972655;28;20128;-72
2022/02/12 19:02:08;;;;;;;19.33;5.68;;;;;;;18.42;39.65;100394.72;4972509;28;20029;-72
2022/02/12 19:04:34;;;;;;;14.18;3.83;;;;;;;18.35;40.03;100393.81;4944043;28;20034;-75
2022/02/12 19:07:00;;;;;;;26.55;6.13;;;;;;;18.38;39.63;100404.16;4956180;28;20031;-72
2022/02/12 19:09:25;;;;;;;21.48;7.10;;;;;;;18.38;39.65;100401.41;4955764;28;20015;-72
2022/02/12 19:11:52;;;;;;;21.58;19.33;;;;;;;18.30;39.86;100392.19;4955009;28;20069;-73
2022/02/12 19:14:18;;;;;;;14.60;5.45;;;;;;;18.35;39.67;100388.28;4955545;28;20023;-74
2022/02/12 19:16:44;;;;;;;18.85;5.60;;;;;;;18.40;39.45;100377.72;4955678;28;20047;-74
2022/02/12 19:19:10;;;;;;;15.77;6.20;;;;;;;18.37;39.52;100372.16;4942007;28;20775;-74
2022/02/12 19:21:36;;;;;;;13.60;4.55;;;;;;;18.27;39.87;100359.75;4953831;28;20895;-73
2022/02/12 19:24:03;;;;;;;19.40;4.70;;;;;;;18.28;39.50;100370.44;4938917;28;20035;-74
2022/02/12 19:26:28;;;;;;;16.08;4.07;;;;;;;18.35;39.66;100364.19;4954160;28;20057;-72
2022/02/12 19:28:54;;;;;;;12.95;3.45;;;;;;;18.35;39.61;100361.44;4958422;28;20043;-73
2022/02/12 19:31:21;;;;;;;19.98;4.40;;;;;;;18.32;39.69;100369.69;4972131;28;20742;-74
2022/02/12 19:33:50;;;;;;;18.20;5.28;;;;;;;18.38;39.54;100363.47;4952185;28;20031;-73
2022/02/12 19:36:23;;;;;;;15.70;5.38;;;;;;;18.28;39.73;100362.13;4961897;28;20051;-73
2022/02/12 19:38:52;;;;;;;14.25;3.83;;;;;;;18.28;39.70;100369.63;4959866;28;20110;-72
2022/02/12 19:41:19;;;;;;;31.50;22.95;;;;;;;18.36;39.55;100362.22;4955464;28;20039;-72
2022/02/12 19:43:45;;;;;;;21.73;14.30;;;;;;;18.34;39.54;100365.38;4959939;28;20035;-72
2022/02/12 19:46:12;;;;;;;20.05;8.95;;;;;;;18.26;39.64;100345.13;4958970;28;20039;-73
2022/02/12 19:48:39;;;;;;;22.85;9.25;;;;;;;18.30;39.63;100354.28;4961184;28;20045;-74
2022/02/12 19:51:09;;;;;;;16.80;6.07;;;;;;;18.25;39.66;100353.81;4958491;28;20035;-75
2022/02/12 19:53:36;;;;;;;17.25;6.07;;;;;;;18.18;39.75;100348.97;4976124;28;20044;-73
2022/02/12 19:56:03;;;;;;;15.38;5.78;;;;;;;18.26;39.71;100364.47;4957990;28;20039;-74